Αρχική σελίδα
METAR-TAF:

METAR-TAF

Αεροδρόμια :

Ταϊτή, Γαλλική Πολυνησία

γεωγραφικό πλάτος: 17-33S, γεωγραφικό μήκος: 149-37W, υψόμετρο: 2 μ

Παρών καιρός

Η αναφορά έγινε 2 ώρες και 47 λεπτά πριν, στις 20:30 UTC
Άνεμος 5 kt από Δ
Θερμοκρασία 27°C
Υγρασία 54%
Πίεση 1014 hPa
Ορατότητα 10 χλμ και άνω
Λίγα νέφη σε ύψος 2300 πόδια

METAR: NTAA 252030Z 27005KT 9999 FEW023 27/17 Q1014 NOSIG

Χρόνος: 13:17 (23:17 UTC)

Πρόγνωση Καιρού

Η αναφορά έγινε 6 ώρες και 17 λεπτά πριν, στις 17:00 UTC
Η πρόγνωση ισχύει από τις 25 στις 18 UTC έως τις 26 στις 24 UTC
Άνεμος 3 kt από μεταβλητές κατευθύνσεις
Ορατότητα 10 χλμ και άνω
Λίγα νέφη σε ύψος 2500 πόδια
Διάσπαρτα νέφη σε ύψος 5000 πόδια
Πιθανότητα 30% :
Προσωρινά
από 25 στις 19 UTC έως τις 26 στις 04 UTC
Άνεμος 15 kt από Ν/ΝΔ

TAF: NTAA 251700Z 2518/2624 VRB03KT 9999 FEW025 SCT050 PROB30 TEMPO 2519/2604 20015KT

Μετεωρολογικές αναφορές και προγνώσεις για περισσότερα από 4000 αεροδρόμια (δελτία METAR και TAF).

Οι διαθέσιμοι σταθμοί απεικονίζονται στο χάρτη με κίτρινες και κόκκινες κουκκίδες.

Μετακινήστε το ποντίκι πάνω από τις κουκκίδες για να δείτε το όνομα του σταθμού.

Στη συνέχεια, κάντε κλικ για να δείτε τις μετεωρολογικές αναφορές και τις προγνώσεις καιρού.

Για να αλλάξετε το χάρτη: κάντε κλικ στα πράσινα κουμπιά με τον μαύρο σταυρό για να ζουμάρετε, στο πράσινο κουμπί με την παύλα για να αφαιρέσετε το ζουμ ή στα πράσινα βέλη για να αντιπαραβάλλετε χάρτες.


METAR-TAF: